sensor_id;sensor_type;location;lat;lon;timestamp;temperature;humidity
13198;DHT22;6664;52.514;13.440;2023-02-03T00:01:15;3.50;70.90
13198;DHT22;6664;52.514;13.440;2023-02-03T00:04:01;3.50;70.80
13198;DHT22;6664;52.514;13.440;2023-02-03T00:06:49;3.50;71.10
13198;DHT22;6664;52.514;13.440;2023-02-03T00:09:37;3.60;71.20
13198;DHT22;6664;52.514;13.440;2023-02-03T00:12:25;3.60;71.00
13198;DHT22;6664;52.514;13.440;2023-02-03T00:15:10;3.60;71.10
13198;DHT22;6664;52.514;13.440;2023-02-03T00:17:56;3.70;71.10
13198;DHT22;6664;52.514;13.440;2023-02-03T00:20:41;3.70;70.80
13198;DHT22;6664;52.514;13.440;2023-02-03T00:23:27;3.80;70.90
13198;DHT22;6664;52.514;13.440;2023-02-03T00:26:17;3.80;70.80
13198;DHT22;6664;52.514;13.440;2023-02-03T00:29:02;3.80;71.10
13198;DHT22;6664;52.514;13.440;2023-02-03T00:31:51;3.80;71.40
13198;DHT22;6664;52.514;13.440;2023-02-03T00:34:38;3.80;71.60
13198;DHT22;6664;52.514;13.440;2023-02-03T00:37:23;3.70;72.40
13198;DHT22;6664;52.514;13.440;2023-02-03T00:40:11;3.70;73.00
13198;DHT22;6664;52.514;13.440;2023-02-03T00:42:59;3.60;75.10
13198;DHT22;6664;52.514;13.440;2023-02-03T00:45:49;3.50;76.70
13198;DHT22;6664;52.514;13.440;2023-02-03T00:48:35;3.50;77.80
13198;DHT22;6664;52.514;13.440;2023-02-03T00:51:21;3.50;79.00
13198;DHT22;6664;52.514;13.440;2023-02-03T00:54:07;3.50;80.00
13198;DHT22;6664;52.514;13.440;2023-02-03T00:56:52;3.50;81.00
13198;DHT22;6664;52.514;13.440;2023-02-03T00:59:38;3.40;82.60
13198;DHT22;6664;52.514;13.440;2023-02-03T01:02:24;3.40;82.70
13198;DHT22;6664;52.514;13.440;2023-02-03T01:05:10;3.30;84.30
13198;DHT22;6664;52.514;13.440;2023-02-03T01:07:56;3.30;86.20
13198;DHT22;6664;52.514;13.440;2023-02-03T01:10:44;3.40;87.60
13198;DHT22;6664;52.514;13.440;2023-02-03T01:13:32;3.30;88.70
13198;DHT22;6664;52.514;13.440;2023-02-03T01:16:21;3.40;90.00
13198;DHT22;6664;52.514;13.440;2023-02-03T01:19:09;3.40;90.70
13198;DHT22;6664;52.514;13.440;2023-02-03T01:21:54;3.40;91.00
13198;DHT22;6664;52.514;13.440;2023-02-03T01:24:42;3.50;91.30
13198;DHT22;6664;52.514;13.440;2023-02-03T01:27:27;3.50;94.00
13198;DHT22;6664;52.514;13.440;2023-02-03T01:30:13;3.50;95.70
13198;DHT22;6664;52.514;13.440;2023-02-03T01:32:58;3.50;96.50
13198;DHT22;6664;52.514;13.440;2023-02-03T01:35:44;3.40;96.20
13198;DHT22;6664;52.514;13.440;2023-02-03T01:38:32;3.50;97.30
13198;DHT22;6664;52.514;13.440;2023-02-03T01:41:23;3.40;97.10
13198;DHT22;6664;52.514;13.440;2023-02-03T01:47:35;3.40;97.40
13198;DHT22;6664;52.514;13.440;2023-02-03T01:50:34;3.50;98.10
13198;DHT22;6664;52.514;13.440;2023-02-03T01:53:21;3.50;97.50
13198;DHT22;6664;52.514;13.440;2023-02-03T01:56:11;3.40;97.30
13198;DHT22;6664;52.514;13.440;2023-02-03T01:58:56;3.40;97.90
13198;DHT22;6664;52.514;13.440;2023-02-03T02:01:45;3.50;98.50
13198;DHT22;6664;52.514;13.440;2023-02-03T02:04:38;3.50;98.70
13198;DHT22;6664;52.514;13.440;2023-02-03T02:07:31;3.50;98.90
13198;DHT22;6664;52.514;13.440;2023-02-03T02:10:17;3.40;98.60
13198;DHT22;6664;52.514;13.440;2023-02-03T02:13:04;3.40;98.60
13198;DHT22;6664;52.514;13.440;2023-02-03T02:16:14;3.50;98.70
13198;DHT22;6664;52.514;13.440;2023-02-03T02:25:18;3.40;98.70
13198;DHT22;6664;52.514;13.440;2023-02-03T02:31:37;3.40;99.80
13198;DHT22;6664;52.514;13.440;2023-02-03T02:41:19;3.30;99.50
13198;DHT22;6664;52.514;13.440;2023-02-03T02:47:05;3.20;99.90
13198;DHT22;6664;52.514;13.440;2023-02-03T02:50:22;3.20;99.90
13198;DHT22;6664;52.514;13.440;2023-02-03T02:53:10;3.20;99.90
13198;DHT22;6664;52.514;13.440;2023-02-03T02:55:58;3.20;99.90
13198;DHT22;6664;52.514;13.440;2023-02-03T02:58:50;3.20;99.90
13198;DHT22;6664;52.514;13.440;2023-02-03T03:01:39;3.20;99.90
13198;DHT22;6664;52.514;13.440;2023-02-03T03:04:30;3.10;99.90
13198;DHT22;6664;52.514;13.440;2023-02-03T03:07:21;2.90;99.90
13198;DHT22;6664;52.514;13.440;2023-02-03T03:10:11;2.90;99.90
13198;DHT22;6664;52.514;13.440;2023-02-03T03:13:04;3.00;99.90
13198;DHT22;6664;52.514;13.440;2023-02-03T03:15:57;3.10;99.90
13198;DHT22;6664;52.514;13.440;2023-02-03T03:18:46;3.00;99.90
13198;DHT22;6664;52.514;13.440;2023-02-03T03:21:52;3.10;99.90
13198;DHT22;6664;52.514;13.440;2023-02-03T03:24:47;3.10;99.90
13198;DHT22;6664;52.514;13.440;2023-02-03T03:27:40;3.10;99.90
13198;DHT22;6664;52.514;13.440;2023-02-03T03:30:36;3.10;99.90
13198;DHT22;6664;52.514;13.440;2023-02-03T03:33:23;3.00;99.90
13198;DHT22;6664;52.514;13.440;2023-02-03T03:36:18;3.00;99.90
13198;DHT22;6664;52.514;13.440;2023-02-03T03:42:39;3.10;99.90
13198;DHT22;6664;52.514;13.440;2023-02-03T03:45:53;3.00;99.90
13198;DHT22;6664;52.514;13.440;2023-02-03T03:48:53;3.00;99.90
13198;DHT22;6664;52.514;13.440;2023-02-03T03:54:29;3.10;99.90
13198;DHT22;6664;52.514;13.440;2023-02-03T03:57:32;3.10;99.90
13198;DHT22;6664;52.514;13.440;2023-02-03T04:00:21;3.20;99.90
13198;DHT22;6664;52.514;13.440;2023-02-03T04:03:13;3.20;99.90
13198;DHT22;6664;52.514;13.440;2023-02-03T04:06:00;3.10;99.90
13198;DHT22;6664;52.514;13.440;2023-02-03T04:08:46;3.10;99.90
13198;DHT22;6664;52.514;13.440;2023-02-03T04:11:31;3.20;99.90
13198;DHT22;6664;52.514;13.440;2023-02-03T04:14:35;3.10;99.90
13198;DHT22;6664;52.514;13.440;2023-02-03T04:17:25;3.20;99.90
13198;DHT22;6664;52.514;13.440;2023-02-03T04:20:11;3.30;99.90
13198;DHT22;6664;52.514;13.440;2023-02-03T04:22:57;3.30;99.90
13198;DHT22;6664;52.514;13.440;2023-02-03T04:25:43;3.30;99.90
13198;DHT22;6664;52.514;13.440;2023-02-03T04:28:29;3.40;99.90
13198;DHT22;6664;52.514;13.440;2023-02-03T04:31:15;3.40;99.90
13198;DHT22;6664;52.514;13.440;2023-02-03T04:34:01;3.40;99.90
13198;DHT22;6664;52.514;13.440;2023-02-03T04:36:48;3.60;99.90
13198;DHT22;6664;52.514;13.440;2023-02-03T04:39:34;3.60;99.90
13198;DHT22;6664;52.514;13.440;2023-02-03T04:42:21;3.70;99.90
13198;DHT22;6664;52.514;13.440;2023-02-03T04:45:09;3.80;99.90
13198;DHT22;6664;52.514;13.440;2023-02-03T04:47:55;3.80;99.90
13198;DHT22;6664;52.514;13.440;2023-02-03T04:50:40;3.90;99.90
13198;DHT22;6664;52.514;13.440;2023-02-03T04:53:26;4.00;99.90
13198;DHT22;6664;52.514;13.440;2023-02-03T04:56:13;4.00;99.90
13198;DHT22;6664;52.514;13.440;2023-02-03T04:59:01;4.10;99.90
13198;DHT22;6664;52.514;13.440;2023-02-03T05:01:46;4.10;99.90
13198;DHT22;6664;52.514;13.440;2023-02-03T05:04:33;4.20;99.90
13198;DHT22;6664;52.514;13.440;2023-02-03T05:07:19;4.30;99.90
13198;DHT22;6664;52.514;13.440;2023-02-03T05:10:05;4.40;99.90
13198;DHT22;6664;52.514;13.440;2023-02-03T05:12:50;4.50;99.90
13198;DHT22;6664;52.514;13.440;2023-02-03T05:15:36;4.50;99.90
13198;DHT22;6664;52.514;13.440;2023-02-03T05:18:26;4.60;99.90
13198;DHT22;6664;52.514;13.440;2023-02-03T05:21:12;4.80;99.90
13198;DHT22;6664;52.514;13.440;2023-02-03T05:23:58;4.90;99.90
13198;DHT22;6664;52.514;13.440;2023-02-03T05:26:47;5.00;99.90
13198;DHT22;6664;52.514;13.440;2023-02-03T05:29:33;5.10;99.90
13198;DHT22;6664;52.514;13.440;2023-02-03T05:32:20;5.20;99.90
13198;DHT22;6664;52.514;13.440;2023-02-03T05:35:08;5.30;99.90
13198;DHT22;6664;52.514;13.440;2023-02-03T05:37:56;5.40;99.90
13198;DHT22;6664;52.514;13.440;2023-02-03T05:40:43;5.50;99.90
13198;DHT22;6664;52.514;13.440;2023-02-03T05:43:51;5.50;99.90
13198;DHT22;6664;52.514;13.440;2023-02-03T05:46:38;5.60;99.90
13198;DHT22;6664;52.514;13.440;2023-02-03T05:49:25;5.70;99.90
13198;DHT22;6664;52.514;13.440;2023-02-03T05:52:10;5.80;99.90
13198;DHT22;6664;52.514;13.440;2023-02-03T05:54:58;5.90;99.90
13198;DHT22;6664;52.514;13.440;2023-02-03T05:57:43;6.00;99.90
13198;DHT22;6664;52.514;13.440;2023-02-03T06:00:29;6.10;99.90
13198;DHT22;6664;52.514;13.440;2023-02-03T06:03:14;6.20;99.90
13198;DHT22;6664;52.514;13.440;2023-02-03T06:06:00;6.30;99.90
13198;DHT22;6664;52.514;13.440;2023-02-03T06:08:49;6.40;99.90
13198;DHT22;6664;52.514;13.440;2023-02-03T06:11:42;6.50;99.90
13198;DHT22;6664;52.514;13.440;2023-02-03T06:14:28;6.60;99.90
13198;DHT22;6664;52.514;13.440;2023-02-03T06:17:13;6.60;99.90
13198;DHT22;6664;52.514;13.440;2023-02-03T06:20:03;6.70;99.90
13198;DHT22;6664;52.514;13.440;2023-02-03T06:22:51;6.70;99.90
13198;DHT22;6664;52.514;13.440;2023-02-03T06:25:36;6.70;99.90
13198;DHT22;6664;52.514;13.440;2023-02-03T06:28:22;6.80;99.90
13198;DHT22;6664;52.514;13.440;2023-02-03T06:31:07;6.80;99.90
13198;DHT22;6664;52.514;13.440;2023-02-03T06:33:53;6.80;99.90
13198;DHT22;6664;52.514;13.440;2023-02-03T06:36:41;6.90;99.90
13198;DHT22;6664;52.514;13.440;2023-02-03T06:39:26;6.90;99.90
13198;DHT22;6664;52.514;13.440;2023-02-03T06:42:12;6.90;99.90
13198;DHT22;6664;52.514;13.440;2023-02-03T06:44:57;6.90;99.90
13198;DHT22;6664;52.514;13.440;2023-02-03T06:47:44;7.00;99.90
13198;DHT22;6664;52.514;13.440;2023-02-03T06:50:30;7.00;99.90
13198;DHT22;6664;52.514;13.440;2023-02-03T06:53:15;7.00;99.90
13198;DHT22;6664;52.514;13.440;2023-02-03T06:56:01;7.00;99.90
13198;DHT22;6664;52.514;13.440;2023-02-03T06:58:47;7.10;99.90
13198;DHT22;6664;52.514;13.440;2023-02-03T07:01:32;7.10;99.90
13198;DHT22;6664;52.514;13.440;2023-02-03T07:04:18;7.20;99.90
13198;DHT22;6664;52.514;13.440;2023-02-03T07:07:04;7.20;99.90
13198;DHT22;6664;52.514;13.440;2023-02-03T07:09:50;7.20;99.90
13198;DHT22;6664;52.514;13.440;2023-02-03T07:12:35;7.30;99.90
13198;DHT22;6664;52.514;13.440;2023-02-03T07:15:23;7.30;99.90
13198;DHT22;6664;52.514;13.440;2023-02-03T07:18:09;7.30;99.90
13198;DHT22;6664;52.514;13.440;2023-02-03T07:20:56;7.30;99.90
13198;DHT22;6664;52.514;13.440;2023-02-03T07:23:47;7.30;99.90
13198;DHT22;6664;52.514;13.440;2023-02-03T07:26:33;7.30;99.90
13198;DHT22;6664;52.514;13.440;2023-02-03T07:29:21;7.30;99.90
13198;DHT22;6664;52.514;13.440;2023-02-03T07:32:07;7.30;99.90
13198;DHT22;6664;52.514;13.440;2023-02-03T07:34:53;7.30;99.90
13198;DHT22;6664;52.514;13.440;2023-02-03T07:37:38;7.30;99.90
13198;DHT22;6664;52.514;13.440;2023-02-03T07:40:24;7.40;99.90
13198;DHT22;6664;52.514;13.440;2023-02-03T07:43:10;7.40;99.90
13198;DHT22;6664;52.514;13.440;2023-02-03T07:45:56;7.40;99.90
13198;DHT22;6664;52.514;13.440;2023-02-03T07:48:41;7.40;99.90
13198;DHT22;6664;52.514;13.440;2023-02-03T07:51:27;7.50;99.90
13198;DHT22;6664;52.514;13.440;2023-02-03T07:54:12;7.40;99.90
13198;DHT22;6664;52.514;13.440;2023-02-03T07:56:59;7.50;99.90
13198;DHT22;6664;52.514;13.440;2023-02-03T07:59:47;7.50;99.90
13198;DHT22;6664;52.514;13.440;2023-02-03T08:02:32;7.60;99.90
13198;DHT22;6664;52.514;13.440;2023-02-03T08:05:18;7.60;99.90
13198;DHT22;6664;52.514;13.440;2023-02-03T08:08:04;7.60;99.90
13198;DHT22;6664;52.514;13.440;2023-02-03T08:10:54;7.60;99.90
13198;DHT22;6664;52.514;13.440;2023-02-03T08:13:42;7.60;99.90
13198;DHT22;6664;52.514;13.440;2023-02-03T08:16:28;7.60;99.90
13198;DHT22;6664;52.514;13.440;2023-02-03T08:19:16;7.70;99.90
13198;DHT22;6664;52.514;13.440;2023-02-03T08:22:01;7.70;99.90
13198;DHT22;6664;52.514;13.440;2023-02-03T08:24:47;7.60;99.90
13198;DHT22;6664;52.514;13.440;2023-02-03T08:27:33;7.60;99.90
13198;DHT22;6664;52.514;13.440;2023-02-03T08:30:18;7.50;99.90
13198;DHT22;6664;52.514;13.440;2023-02-03T08:33:04;7.50;99.90
13198;DHT22;6664;52.514;13.440;2023-02-03T08:35:49;7.50;99.90
13198;DHT22;6664;52.514;13.440;2023-02-03T08:38:35;7.50;99.90
13198;DHT22;6664;52.514;13.440;2023-02-03T08:41:28;7.60;99.90
13198;DHT22;6664;52.514;13.440;2023-02-03T08:44:14;7.60;99.90
13198;DHT22;6664;52.514;13.440;2023-02-03T08:47:02;7.70;99.90
13198;DHT22;6664;52.514;13.440;2023-02-03T08:49:48;7.70;99.90
13198;DHT22;6664;52.514;13.440;2023-02-03T08:52:34;7.70;99.90
13198;DHT22;6664;52.514;13.440;2023-02-03T08:55:20;7.70;99.90
13198;DHT22;6664;52.514;13.440;2023-02-03T08:58:08;7.70;99.90
13198;DHT22;6664;52.514;13.440;2023-02-03T09:00:54;7.60;99.90
13198;DHT22;6664;52.514;13.440;2023-02-03T09:03:42;7.50;99.90
13198;DHT22;6664;52.514;13.440;2023-02-03T09:06:30;7.50;99.90
13198;DHT22;6664;52.514;13.440;2023-02-03T09:09:16;7.60;99.90
13198;DHT22;6664;52.514;13.440;2023-02-03T09:12:08;7.50;99.90
13198;DHT22;6664;52.514;13.440;2023-02-03T09:14:56;7.60;99.90
13198;DHT22;6664;52.514;13.440;2023-02-03T09:17:42;7.70;99.90
13198;DHT22;6664;52.514;13.440;2023-02-03T09:20:29;7.70;99.90
13198;DHT22;6664;52.514;13.440;2023-02-03T09:23:16;7.60;99.90
13198;DHT22;6664;52.514;13.440;2023-02-03T09:26:08;7.70;99.90
13198;DHT22;6664;52.514;13.440;2023-02-03T09:28:54;7.80;99.90
13198;DHT22;6664;52.514;13.440;2023-02-03T09:31:39;7.70;99.90
13198;DHT22;6664;52.514;13.440;2023-02-03T09:34:27;7.60;99.90
13198;DHT22;6664;52.514;13.440;2023-02-03T09:37:13;7.70;99.90
13198;DHT22;6664;52.514;13.440;2023-02-03T09:39:58;7.70;99.90
13198;DHT22;6664;52.514;13.440;2023-02-03T09:45:37;7.70;99.90
13198;DHT22;6664;52.514;13.440;2023-02-03T09:48:26;7.70;99.90
13198;DHT22;6664;52.514;13.440;2023-02-03T09:51:20;7.70;99.90
13198;DHT22;6664;52.514;13.440;2023-02-03T09:54:19;7.80;99.90
13198;DHT22;6664;52.514;13.440;2023-02-03T09:57:12;7.80;99.90
13198;DHT22;6664;52.514;13.440;2023-02-03T10:00:08;7.80;99.90
13198;DHT22;6664;52.514;13.440;2023-02-03T10:16:06;8.20;99.90
13198;DHT22;6664;52.514;13.440;2023-02-03T10:18:59;8.20;99.90
13198;DHT22;6664;52.514;13.440;2023-02-03T10:21:54;8.20;99.90
13198;DHT22;6664;52.514;13.440;2023-02-03T10:24:51;8.30;99.90
13198;DHT22;6664;52.514;13.440;2023-02-03T10:27:37;8.30;99.90
13198;DHT22;6664;52.514;13.440;2023-02-03T10:30:31;8.40;99.90
13198;DHT22;6664;52.514;13.440;2023-02-03T10:33:19;8.40;99.90
13198;DHT22;6664;52.514;13.440;2023-02-03T10:42:10;8.40;99.90
13198;DHT22;6664;52.514;13.440;2023-02-03T10:44:57;8.30;99.90
13198;DHT22;6664;52.514;13.440;2023-02-03T10:47:54;7.90;99.90
13198;DHT22;6664;52.514;13.440;2023-02-03T10:50:47;7.50;99.90
13198;DHT22;6664;52.514;13.440;2023-02-03T10:53:34;6.80;99.90
13198;DHT22;6664;52.514;13.440;2023-02-03T10:56:24;6.30;99.90
13198;DHT22;6664;52.514;13.440;2023-02-03T10:59:27;6.20;99.90
13198;DHT22;6664;52.514;13.440;2023-02-03T11:02:40;6.20;99.90
13198;DHT22;6664;52.514;13.440;2023-02-03T11:05:26;6.30;99.90
13198;DHT22;6664;52.514;13.440;2023-02-03T11:08:15;6.20;99.90
13198;DHT22;6664;52.514;13.440;2023-02-03T11:11:06;6.30;99.90
13198;DHT22;6664;52.514;13.440;2023-02-03T11:14:15;6.30;99.90
13198;DHT22;6664;52.514;13.440;2023-02-03T11:17:06;6.40;99.90
13198;DHT22;6664;52.514;13.440;2023-02-03T11:19:54;6.50;99.90
13198;DHT22;6664;52.514;13.440;2023-02-03T11:22:43;6.50;99.90
13198;DHT22;6664;52.514;13.440;2023-02-03T11:25:32;6.70;99.90
13198;DHT22;6664;52.514;13.440;2023-02-03T11:28:17;6.80;99.90
13198;DHT22;6664;52.514;13.440;2023-02-03T11:31:03;6.90;99.90
13198;DHT22;6664;52.514;13.440;2023-02-03T11:33:59;7.00;99.90
13198;DHT22;6664;52.514;13.440;2023-02-03T11:36:45;7.00;99.90
13198;DHT22;6664;52.514;13.440;2023-02-03T11:39:30;7.00;99.90
13198;DHT22;6664;52.514;13.440;2023-02-03T11:42:21;7.10;99.90
13198;DHT22;6664;52.514;13.440;2023-02-03T11:48:35;7.50;99.90
13198;DHT22;6664;52.514;13.440;2023-02-03T12:13:22;8.10;99.90
13198;DHT22;6664;52.514;13.440;2023-02-03T12:23:10;8.70;99.90
13198;DHT22;6664;52.514;13.440;2023-02-03T12:26:23;8.50;99.90
13198;DHT22;6664;52.514;13.440;2023-02-03T12:29:18;8.60;99.90
13198;DHT22;6664;52.514;13.440;2023-02-03T12:38:23;9.20;99.90
13198;DHT22;6664;52.514;13.440;2023-02-03T12:41:14;9.30;99.90
13198;DHT22;6664;52.514;13.440;2023-02-03T12:44:11;9.30;99.90
13198;DHT22;6664;52.514;13.440;2023-02-03T12:50:31;9.30;99.90
13198;DHT22;6664;52.514;13.440;2023-02-03T12:53:23;9.10;99.90
13198;DHT22;6664;52.514;13.440;2023-02-03T12:56:15;8.60;99.90
13198;DHT22;6664;52.514;13.440;2023-02-03T12:59:04;8.20;99.90
13198;DHT22;6664;52.514;13.440;2023-02-03T13:01:56;6.60;99.90
13198;DHT22;6664;52.514;13.440;2023-02-03T13:04:48;4.90;99.90
13198;DHT22;6664;52.514;13.440;2023-02-03T13:08:24;4.50;99.90
13198;DHT22;6664;52.514;13.440;2023-02-03T13:11:33;4.40;99.90
13198;DHT22;6664;52.514;13.440;2023-02-03T13:20:18;4.80;99.90
13198;DHT22;6664;52.514;13.440;2023-02-03T13:23:05;4.90;99.90
13198;DHT22;6664;52.514;13.440;2023-02-03T13:32:23;5.20;99.90
13198;DHT22;6664;52.514;13.440;2023-02-03T13:35:50;4.90;99.90
13198;DHT22;6664;52.514;13.440;2023-02-03T13:42:23;5.30;99.90
13198;DHT22;6664;52.514;13.440;2023-02-03T13:45:23;5.90;99.90
13198;DHT22;6664;52.514;13.440;2023-02-03T13:48:30;8.50;99.90
13198;DHT22;6664;52.514;13.440;2023-02-03T13:51:29;10.00;99.90
13198;DHT22;6664;52.514;13.440;2023-02-03T13:57:23;8.40;99.90
13198;DHT22;6664;52.514;13.440;2023-02-03T14:12:31;6.90;99.90
13198;DHT22;6664;52.514;13.440;2023-02-03T14:21:12;7.70;99.90
13198;DHT22;6664;52.514;13.440;2023-02-03T14:24:06;7.60;99.90
13198;DHT22;6664;52.514;13.440;2023-02-03T14:26:54;7.40;99.90
13198;DHT22;6664;52.514;13.440;2023-02-03T14:29:44;7.30;99.90
13198;DHT22;6664;52.514;13.440;2023-02-03T14:32:59;7.60;99.90
13198;DHT22;6664;52.514;13.440;2023-02-03T14:35:48;7.90;99.90
13198;DHT22;6664;52.514;13.440;2023-02-03T14:38:33;7.90;99.90
13198;DHT22;6664;52.514;13.440;2023-02-03T14:41:28;7.90;99.90
13198;DHT22;6664;52.514;13.440;2023-02-03T14:54:07;7.90;99.90
13198;DHT22;6664;52.514;13.440;2023-02-03T15:05:59;7.60;99.90
13198;DHT22;6664;52.514;13.440;2023-02-03T15:08:46;7.60;99.90
13198;DHT22;6664;52.514;13.440;2023-02-03T15:11:41;7.70;99.90
13198;DHT22;6664;52.514;13.440;2023-02-03T15:14:28;7.60;99.90
13198;DHT22;6664;52.514;13.440;2023-02-03T15:20:33;7.60;99.90
13198;DHT22;6664;52.514;13.440;2023-02-03T15:23:21;7.50;99.90
13198;DHT22;6664;52.514;13.440;2023-02-03T15:26:26;7.50;99.90
13198;DHT22;6664;52.514;13.440;2023-02-03T15:29:29;7.60;99.90
13198;DHT22;6664;52.514;13.440;2023-02-03T15:32:52;7.50;99.90
13198;DHT22;6664;52.514;13.440;2023-02-03T15:35:52;7.50;99.90
13198;DHT22;6664;52.514;13.440;2023-02-03T15:38:43;7.40;99.90
13198;DHT22;6664;52.514;13.440;2023-02-03T15:41:30;7.40;99.90
13198;DHT22;6664;52.514;13.440;2023-02-03T15:44:27;7.40;99.90
13198;DHT22;6664;52.514;13.440;2023-02-03T15:47:25;7.40;99.90
13198;DHT22;6664;52.514;13.440;2023-02-03T15:50:23;7.30;99.90
13198;DHT22;6664;52.514;13.440;2023-02-03T15:53:25;7.30;99.90
13198;DHT22;6664;52.514;13.440;2023-02-03T15:56:49;7.30;99.90
13198;DHT22;6664;52.514;13.440;2023-02-03T15:59:45;7.20;99.90
13198;DHT22;6664;52.514;13.440;2023-02-03T16:02:43;7.20;99.90
13198;DHT22;6664;52.514;13.440;2023-02-03T16:05:32;7.10;99.90
13198;DHT22;6664;52.514;13.440;2023-02-03T16:08:35;7.10;99.90
13198;DHT22;6664;52.514;13.440;2023-02-03T16:14:11;7.10;99.90
13198;DHT22;6664;52.514;13.440;2023-02-03T16:23:22;7.10;99.90
13198;DHT22;6664;52.514;13.440;2023-02-03T16:26:19;7.10;99.90
13198;DHT22;6664;52.514;13.440;2023-02-03T16:32:17;7.10;99.90
13198;DHT22;6664;52.514;13.440;2023-02-03T16:35:23;7.10;99.90
13198;DHT22;6664;52.514;13.440;2023-02-03T16:38:27;7.10;99.90
13198;DHT22;6664;52.514;13.440;2023-02-03T16:41:31;7.10;99.90
13198;DHT22;6664;52.514;13.440;2023-02-03T16:44:35;7.00;99.60
13198;DHT22;6664;52.514;13.440;2023-02-03T16:47:39;7.10;94.20
13198;DHT22;6664;52.514;13.440;2023-02-03T16:50:46;7.00;89.70
13198;DHT22;6664;52.514;13.440;2023-02-03T16:53:44;7.00;91.20
13198;DHT22;6664;52.514;13.440;2023-02-03T16:56:32;7.00;85.80
13198;DHT22;6664;52.514;13.440;2023-02-03T16:59:17;6.90;83.70
13198;DHT22;6664;52.514;13.440;2023-02-03T17:02:03;6.90;83.80
13198;DHT22;6664;52.514;13.440;2023-02-03T17:04:49;6.90;83.70
13198;DHT22;6664;52.514;13.440;2023-02-03T17:07:35;6.90;82.40
13198;DHT22;6664;52.514;13.440;2023-02-03T17:10:21;6.90;80.80
13198;DHT22;6664;52.514;13.440;2023-02-03T17:13:09;6.90;80.30
13198;DHT22;6664;52.514;13.440;2023-02-03T17:15:55;6.90;79.20
13198;DHT22;6664;52.514;13.440;2023-02-03T17:18:42;6.90;78.00
13198;DHT22;6664;52.514;13.440;2023-02-03T17:21:28;7.00;77.20
13198;DHT22;6664;52.514;13.440;2023-02-03T17:24:17;7.00;76.00
13198;DHT22;6664;52.514;13.440;2023-02-03T17:27:03;7.10;74.10
13198;DHT22;6664;52.514;13.440;2023-02-03T17:29:49;7.10;74.20
13198;DHT22;6664;52.514;13.440;2023-02-03T17:32:35;7.10;73.70
13198;DHT22;6664;52.514;13.440;2023-02-03T17:35:22;7.10;72.90
13198;DHT22;6664;52.514;13.440;2023-02-03T17:38:10;7.20;71.20
13198;DHT22;6664;52.514;13.440;2023-02-03T17:40:58;7.20;70.70
13198;DHT22;6664;52.514;13.440;2023-02-03T17:44:02;7.20;70.20
13198;DHT22;6664;52.514;13.440;2023-02-03T17:47:08;7.20;69.30
13198;DHT22;6664;52.514;13.440;2023-02-03T17:50:14;7.20;69.40
13198;DHT22;6664;52.514;13.440;2023-02-03T17:53:19;7.30;69.00
13198;DHT22;6664;52.514;13.440;2023-02-03T17:56:12;7.30;68.70
13198;DHT22;6664;52.514;13.440;2023-02-03T17:59:00;7.20;68.60
13198;DHT22;6664;52.514;13.440;2023-02-03T18:01:48;7.20;68.90
13198;DHT22;6664;52.514;13.440;2023-02-03T18:04:36;7.20;69.00
13198;DHT22;6664;52.514;13.440;2023-02-03T18:07:22;7.20;69.30
13198;DHT22;6664;52.514;13.440;2023-02-03T18:10:07;7.20;69.70
13198;DHT22;6664;52.514;13.440;2023-02-03T18:12:53;7.20;69.70
13198;DHT22;6664;52.514;13.440;2023-02-03T18:15:39;7.20;69.70
13198;DHT22;6664;52.514;13.440;2023-02-03T18:18:27;7.20;69.80
13198;DHT22;6664;52.514;13.440;2023-02-03T18:21:15;7.20;69.60
13198;DHT22;6664;52.514;13.440;2023-02-03T18:24:00;7.20;69.70
13198;DHT22;6664;52.514;13.440;2023-02-03T18:26:50;7.20;69.30
13198;DHT22;6664;52.514;13.440;2023-02-03T18:29:36;7.20;69.50
13198;DHT22;6664;52.514;13.440;2023-02-03T18:32:27;7.20;69.70
13198;DHT22;6664;52.514;13.440;2023-02-03T18:35:16;7.20;69.30
13198;DHT22;6664;52.514;13.440;2023-02-03T18:38:02;7.20;69.30
13198;DHT22;6664;52.514;13.440;2023-02-03T18:40:49;7.20;68.90
13198;DHT22;6664;52.514;13.440;2023-02-03T18:43:39;7.20;69.10
13198;DHT22;6664;52.514;13.440;2023-02-03T18:46:30;7.20;68.80
13198;DHT22;6664;52.514;13.440;2023-02-03T18:49:16;7.20;68.60
13198;DHT22;6664;52.514;13.440;2023-02-03T18:52:03;7.20;68.80
13198;DHT22;6664;52.514;13.440;2023-02-03T18:54:49;7.20;68.70
13198;DHT22;6664;52.514;13.440;2023-02-03T18:57:36;7.20;68.60
13198;DHT22;6664;52.514;13.440;2023-02-03T19:00:22;7.20;68.70
13198;DHT22;6664;52.514;13.440;2023-02-03T19:03:08;7.20;68.70
13198;DHT22;6664;52.514;13.440;2023-02-03T19:05:54;7.20;69.00
13198;DHT22;6664;52.514;13.440;2023-02-03T19:08:42;7.20;68.60
13198;DHT22;6664;52.514;13.440;2023-02-03T19:11:27;7.20;68.70
13198;DHT22;6664;52.514;13.440;2023-02-03T19:14:13;7.20;68.90
13198;DHT22;6664;52.514;13.440;2023-02-03T19:17:01;7.20;68.70
13198;DHT22;6664;52.514;13.440;2023-02-03T19:19:47;7.20;68.60
13198;DHT22;6664;52.514;13.440;2023-02-03T19:22:32;7.20;68.80
13198;DHT22;6664;52.514;13.440;2023-02-03T19:25:18;7.20;68.50
13198;DHT22;6664;52.514;13.440;2023-02-03T19:28:03;7.20;68.50
13198;DHT22;6664;52.514;13.440;2023-02-03T19:30:49;7.20;68.90
13198;DHT22;6664;52.514;13.440;2023-02-03T19:33:41;7.20;70.00
13198;DHT22;6664;52.514;13.440;2023-02-03T19:36:29;7.10;70.80
13198;DHT22;6664;52.514;13.440;2023-02-03T19:39:14;7.00;72.10
13198;DHT22;6664;52.514;13.440;2023-02-03T19:42:00;7.00;72.20
13198;DHT22;6664;52.514;13.440;2023-02-03T19:44:48;7.00;72.60
13198;DHT22;6664;52.514;13.440;2023-02-03T19:47:37;7.00;72.90
13198;DHT22;6664;52.514;13.440;2023-02-03T19:50:25;6.90;73.10
13198;DHT22;6664;52.514;13.440;2023-02-03T19:53:17;7.00;73.00
13198;DHT22;6664;52.514;13.440;2023-02-03T19:56:05;6.90;73.60
13198;DHT22;6664;52.514;13.440;2023-02-03T19:58:51;7.00;73.90
13198;DHT22;6664;52.514;13.440;2023-02-03T20:01:38;6.90;74.10
13198;DHT22;6664;52.514;13.440;2023-02-03T20:04:23;6.90;74.40
13198;DHT22;6664;52.514;13.440;2023-02-03T20:07:10;6.90;74.60
13198;DHT22;6664;52.514;13.440;2023-02-03T20:09:56;6.90;74.40
13198;DHT22;6664;52.514;13.440;2023-02-03T20:12:41;6.90;74.80
13198;DHT22;6664;52.514;13.440;2023-02-03T20:15:27;6.90;75.50
13198;DHT22;6664;52.514;13.440;2023-02-03T20:18:13;6.80;75.80
13198;DHT22;6664;52.514;13.440;2023-02-03T20:20:59;6.80;76.00
13198;DHT22;6664;52.514;13.440;2023-02-03T20:23:47;6.80;76.80
13198;DHT22;6664;52.514;13.440;2023-02-03T20:26:33;6.70;77.40
13198;DHT22;6664;52.514;13.440;2023-02-03T20:29:19;6.70;78.10
13198;DHT22;6664;52.514;13.440;2023-02-03T20:32:07;6.70;79.60
13198;DHT22;6664;52.514;13.440;2023-02-03T20:34:54;6.60;80.70
13198;DHT22;6664;52.514;13.440;2023-02-03T20:37:40;6.60;83.00
13198;DHT22;6664;52.514;13.440;2023-02-03T20:40:26;6.50;84.80
13198;DHT22;6664;52.514;13.440;2023-02-03T20:43:21;6.40;87.20
13198;DHT22;6664;52.514;13.440;2023-02-03T20:46:11;6.40;88.10
13198;DHT22;6664;52.514;13.440;2023-02-03T20:49:00;6.40;89.50
13198;DHT22;6664;52.514;13.440;2023-02-03T20:51:46;6.30;92.20
13198;DHT22;6664;52.514;13.440;2023-02-03T20:54:35;6.20;93.20